createdAt,value
2018-07-03T00:02:18.534Z,101588.17
2018-07-03T00:04:47.064Z,101589.08
2018-07-03T00:07:15.580Z,101593.08
2018-07-03T00:09:44.076Z,101586.00
2018-07-03T00:12:12.557Z,101586.42
2018-07-03T00:14:42.317Z,101578.45
2018-07-03T00:17:15.890Z,101578.91
2018-07-03T00:19:46.617Z,101578.02
2018-07-03T00:22:15.045Z,101587.32
2018-07-03T00:24:44.177Z,101584.63
2018-07-03T00:27:12.692Z,101578.86
2018-07-03T00:29:41.288Z,101586.84
2018-07-03T00:32:09.729Z,101585.95
2018-07-03T00:34:38.249Z,101589.50
2018-07-03T00:37:06.795Z,101589.02
2018-07-03T00:39:35.302Z,101589.45
2018-07-03T00:42:03.901Z,101591.19
2018-07-03T00:44:32.380Z,101591.58
2018-07-03T00:47:00.930Z,101599.92
2018-07-03T00:49:29.356Z,101595.88
2018-07-03T00:51:57.888Z,101598.93
2018-07-03T00:54:26.363Z,101591.80
2018-07-03T00:56:54.890Z,101593.13
2018-07-03T00:59:23.514Z,101590.00
2018-07-03T01:01:52.029Z,101589.94
2018-07-03T01:04:20.500Z,101583.25
2018-07-03T01:06:48.976Z,101588.55
2018-07-03T01:09:17.376Z,101589.44
2018-07-03T01:11:55.401Z,101584.98
2018-07-03T01:14:23.884Z,101584.06
2018-07-03T01:16:52.323Z,101578.30
2018-07-03T01:19:20.796Z,101578.72
2018-07-03T01:21:52.344Z,101582.69
2018-07-03T01:24:20.788Z,101581.77
2018-07-03T01:26:49.322Z,101583.06
2018-07-03T01:29:17.911Z,101584.34
2018-07-03T01:31:46.403Z,101587.84
2018-07-03T01:34:14.969Z,101582.50
2018-07-03T01:36:43.463Z,101586.00
2018-07-03T01:39:11.945Z,101579.37
2018-07-03T01:41:40.396Z,101581.98
2018-07-03T01:44:08.820Z,101580.20
2018-07-03T01:46:37.276Z,101573.06
2018-07-03T01:49:05.784Z,101571.22
2018-07-03T01:51:34.361Z,101573.38
2018-07-03T01:54:02.759Z,101573.36
2018-07-03T01:56:31.194Z,101570.75
2018-07-03T01:58:59.688Z,101572.95
2018-07-03T02:01:28.186Z,101566.77
2018-07-03T02:03:56.710Z,101570.33
2018-07-03T02:06:25.274Z,101570.75
2018-07-03T02:08:53.718Z,101574.73
2018-07-03T02:11:22.297Z,101566.77
2018-07-03T02:13:50.801Z,101565.37
2018-07-03T02:16:19.877Z,101562.25
2018-07-03T02:18:48.324Z,101564.01
2018-07-03T02:21:16.848Z,101561.34
2018-07-03T02:23:45.369Z,101558.27
2018-07-03T02:26:13.812Z,101559.14
2018-07-03T02:28:42.906Z,101555.53
2018-07-03T02:31:11.485Z,101556.38
2018-07-03T02:33:40.054Z,101552.36
2018-07-03T02:36:08.564Z,101551.91
2018-07-03T02:38:37.013Z,101554.09
2018-07-03T02:41:05.969Z,101554.53
2018-07-03T02:43:34.516Z,101551.45
2018-07-03T02:46:02.942Z,101560.73
2018-07-03T02:48:31.472Z,101556.73
2018-07-03T02:50:59.965Z,101557.12
2018-07-03T02:53:28.431Z,101554.42
2018-07-03T02:55:56.958Z,101553.52
2018-07-03T02:58:25.481Z,101550.73
2018-07-03T03:00:53.927Z,101551.09
2018-07-03T03:03:22.477Z,101545.77
2018-07-03T03:05:51.558Z,101546.17
2018-07-03T03:08:20.086Z,101546.16
2018-07-03T03:10:48.530Z,101540.78
2018-07-03T03:13:17.056Z,101533.67
2018-07-03T03:15:45.596Z,101541.63
2018-07-03T03:18:14.125Z,101538.06
2018-07-03T03:20:42.653Z,101541.61
2018-07-03T03:23:11.121Z,101542.91
2018-07-03T03:29:09.379Z,101541.42
2018-07-03T03:31:37.834Z,101536.94
2018-07-03T03:34:06.625Z,101538.65
2018-07-03T03:36:35.029Z,101543.45
2018-07-03T03:39:03.884Z,101542.96
2018-07-03T03:41:32.366Z,101549.59
2018-07-03T03:44:00.926Z,101547.80
2018-07-03T03:46:29.926Z,101546.97
2018-07-03T03:48:58.467Z,101549.56
2018-07-03T03:51:27.013Z,101551.76
2018-07-03T03:53:55.534Z,101557.91
2018-07-03T03:56:23.962Z,101558.33
2018-07-03T03:58:52.434Z,101563.20
2018-07-03T04:01:20.881Z,101563.23
2018-07-03T04:03:49.410Z,101565.87
2018-07-03T04:06:17.862Z,101574.70
2018-07-03T04:08:46.360Z,101572.94
2018-07-03T04:11:18.131Z,101575.59
2018-07-03T04:17:07.892Z,101588.88
2018-07-03T04:19:36.349Z,101581.86
2018-07-03T04:22:05.047Z,101583.27
2018-07-03T04:24:33.583Z,101581.83
2018-07-03T04:27:02.085Z,101580.91
2018-07-03T04:29:30.548Z,101583.55
2018-07-03T04:31:58.993Z,101581.03
2018-07-03T04:34:27.488Z,101577.33
2018-07-03T04:36:57.001Z,101574.27
2018-07-03T04:39:25.496Z,101573.03
2018-07-03T04:41:53.978Z,101576.15
2018-07-03T04:44:22.576Z,101584.03
2018-07-03T04:46:52.006Z,101581.57
2018-07-03T04:49:20.447Z,101582.63
2018-07-03T04:51:48.928Z,101579.78
2018-07-03T04:54:17.416Z,101581.89
2018-07-03T04:56:46.976Z,101579.16
2018-07-03T04:59:15.493Z,101581.72
2018-07-03T05:01:44.009Z,101578.14
2018-07-03T05:04:12.581Z,101582.58
2018-07-03T05:06:41.116Z,101587.01
2018-07-03T05:09:10.989Z,101587.45
2018-07-03T05:11:39.579Z,101585.65
2018-07-03T05:14:08.560Z,101594.55
2018-07-03T05:16:38.377Z,101591.91
2018-07-03T05:19:06.935Z,101599.95
2018-07-03T05:21:35.377Z,101603.99
2018-07-03T05:24:03.813Z,101594.31
2018-07-03T05:26:32.361Z,101604.53
2018-07-03T05:29:00.873Z,101605.44
2018-07-03T05:31:29.408Z,101602.36
2018-07-03T05:33:59.774Z,101602.38
2018-07-03T05:36:28.284Z,101598.41
2018-07-03T05:38:56.753Z,101603.84
2018-07-03T05:41:35.771Z,101598.59
2018-07-03T05:44:04.452Z,101600.03
2018-07-03T05:46:32.872Z,101605.84
2018-07-03T05:49:01.297Z,101600.56
2018-07-03T05:51:29.810Z,101597.52
2018-07-03T05:53:58.324Z,101601.12
2018-07-03T05:56:26.936Z,101596.26
2018-07-03T05:58:55.536Z,101602.52
2018-07-03T06:01:24.032Z,101600.37
2018-07-03T06:03:52.556Z,101606.16
2018-07-03T06:06:20.994Z,101609.75
2018-07-03T06:08:49.473Z,101607.55
2018-07-03T06:11:17.947Z,101616.02
2018-07-03T06:13:46.446Z,101618.26
2018-07-03T06:16:14.922Z,101608.50
2018-07-03T06:18:43.381Z,101610.77
2018-07-03T06:21:11.807Z,101610.78
2018-07-03T06:23:44.267Z,101611.24
2018-07-03T06:26:12.761Z,101617.91
2018-07-03T06:28:41.287Z,101620.59
2018-07-03T06:31:09.723Z,101619.72
2018-07-03T06:33:38.246Z,101616.19
2018-07-03T06:36:07.019Z,101611.30
2018-07-03T06:38:35.452Z,101605.97
2018-07-03T06:41:03.956Z,101610.42
2018-07-03T06:43:32.514Z,101609.52
2018-07-03T06:46:01.028Z,101609.55
2018-07-03T06:48:29.492Z,101605.13
2018-07-03T06:50:57.973Z,101602.02
2018-07-03T06:53:26.550Z,101605.55
2018-07-03T06:55:55.027Z,101601.08
2018-07-03T06:58:23.726Z,101598.38
2018-07-03T07:00:52.238Z,101602.35
2018-07-03T07:03:20.693Z,101601.00
2018-07-03T07:05:49.191Z,101598.30
2018-07-03T07:08:17.749Z,101601.38
2018-07-03T07:10:46.249Z,101604.45
2018-07-03T07:13:14.763Z,101592.44
2018-07-03T07:15:43.761Z,101597.34
2018-07-03T07:18:12.303Z,101599.52
2018-07-03T07:20:40.988Z,101600.34
2018-07-03T07:23:09.580Z,101593.13
2018-07-03T07:25:38.150Z,101601.14
2018-07-03T07:28:06.640Z,101600.17
2018-07-03T07:30:35.115Z,101596.59
2018-07-03T07:33:03.757Z,101592.09
2018-07-03T07:35:32.287Z,101585.38
2018-07-03T07:38:00.766Z,101583.54
2018-07-03T07:40:29.336Z,101583.92
2018-07-03T07:42:57.882Z,101577.67
2018-07-03T07:45:26.462Z,101585.19
2018-07-03T07:47:54.967Z,101578.81
2018-07-03T07:50:24.035Z,101576.94
2018-07-03T07:52:52.563Z,101574.64
2018-07-03T07:55:21.019Z,101565.28
2018-07-03T07:57:49.519Z,101569.23
2018-07-03T08:00:18.030Z,101571.44
2018-07-03T08:02:46.449Z,101569.59
2018-07-03T08:05:14.991Z,101572.67
2018-07-03T08:07:43.464Z,101571.70
2018-07-03T08:10:12.041Z,101566.20
2018-07-03T08:12:40.525Z,101566.61
2018-07-03T08:15:09.120Z,101570.59
2018-07-03T08:17:37.698Z,101569.22
2018-07-03T08:20:06.307Z,101570.02
2018-07-03T08:22:34.799Z,101567.62
2018-07-03T08:25:03.513Z,101571.93
2018-07-03T08:27:32.037Z,101564.38
2018-07-03T08:30:00.515Z,101563.06
2018-07-03T08:32:28.964Z,101564.83
2018-07-03T08:34:59.648Z,101569.57
2018-07-03T08:37:30.221Z,101571.65
2018-07-03T08:39:59.496Z,101564.91
2018-07-03T08:42:28.546Z,101569.85
2018-07-03T08:44:57.809Z,101565.72
2018-07-03T08:47:26.425Z,101563.36
2018-07-03T08:49:54.873Z,101560.64
2018-07-03T08:52:23.341Z,101565.52
2018-07-03T08:54:51.790Z,101565.75
2018-07-03T08:57:20.385Z,101561.55
2018-07-03T08:59:48.948Z,101557.64
2018-07-03T09:02:17.452Z,101561.80
2018-07-03T09:04:45.948Z,101566.28
2018-07-03T09:07:14.650Z,101559.39
2018-07-03T09:09:43.175Z,101563.83
2018-07-03T09:12:11.685Z,101561.09
2018-07-03T09:14:40.145Z,101560.13
2018-07-03T09:17:14.106Z,101565.09
2018-07-03T09:19:42.960Z,101567.77
2018-07-03T09:22:11.532Z,101564.53
2018-07-03T09:24:40.209Z,101563.44
2018-07-03T09:27:08.902Z,101557.45
2018-07-03T09:29:37.401Z,101555.03
2018-07-03T09:32:06.222Z,101556.39
2018-07-03T09:34:34.683Z,101556.69
2018-07-03T09:37:03.818Z,101560.59
2018-07-03T09:39:33.655Z,101561.77
2018-07-03T09:42:02.938Z,101558.95
2018-07-03T09:44:31.924Z,101551.02
2018-07-03T09:47:00.843Z,101547.17
2018-07-03T09:49:29.793Z,101551.51
2018-07-03T09:51:59.043Z,101549.31
2018-07-03T09:54:27.729Z,101547.14
2018-07-03T09:56:56.298Z,101542.02
2018-07-03T09:59:25.846Z,101540.98
2018-07-03T10:01:54.501Z,101538.44
2018-07-03T10:04:24.841Z,101538.90
2018-07-03T10:06:53.486Z,101528.72
2018-07-03T10:09:22.686Z,101536.19
2018-07-03T10:11:51.168Z,101535.52
2018-07-03T10:14:19.615Z,101533.30
2018-07-03T10:16:48.139Z,101532.84
2018-07-03T10:19:16.681Z,101530.12
2018-07-03T10:21:45.214Z,101535.04
2018-07-03T10:24:13.788Z,101528.34
2018-07-03T10:26:42.328Z,101531.09
2018-07-03T10:29:10.770Z,101530.00
2018-07-03T10:31:39.269Z,101523.66
2018-07-03T10:34:07.741Z,101526.75
2018-07-03T10:36:36.212Z,101520.39
2018-07-03T10:39:08.229Z,101523.20
2018-07-03T10:41:36.787Z,101520.02
2018-07-03T10:44:05.290Z,101525.33
2018-07-03T10:46:33.881Z,101518.82
2018-07-03T10:49:02.316Z,101516.67
2018-07-03T10:51:30.871Z,101514.16
2018-07-03T10:53:59.402Z,101508.16
2018-07-03T10:56:27.969Z,101512.06
2018-07-03T10:58:57.467Z,101511.23
2018-07-03T11:01:26.026Z,101506.27
2018-07-03T11:03:54.589Z,101503.59
2018-07-03T11:06:23.109Z,101501.59
2018-07-03T11:08:51.612Z,101506.47
2018-07-03T11:11:20.148Z,101490.58
2018-07-03T11:13:48.710Z,101495.61
2018-07-03T11:16:17.216Z,101494.02
2018-07-03T11:18:45.710Z,101492.55
2018-07-03T11:21:14.183Z,101494.75
2018-07-03T11:23:42.807Z,101485.22
2018-07-03T11:26:11.254Z,101490.84
2018-07-03T11:28:39.962Z,101499.02
2018-07-03T11:31:08.620Z,101484.92
2018-07-03T11:33:37.088Z,101491.05
2018-07-03T11:36:05.624Z,101480.57
2018-07-03T11:38:34.096Z,101482.36
2018-07-03T11:41:02.741Z,101483.15
2018-07-03T11:43:31.233Z,101479.89
2018-07-03T11:45:59.733Z,101482.70
2018-07-03T11:48:28.325Z,101475.53
2018-07-03T11:50:56.877Z,101473.04
2018-07-03T11:53:26.193Z,101482.31
2018-07-03T11:55:54.808Z,101478.80
2018-07-03T11:58:23.645Z,101470.97
2018-07-03T12:00:52.306Z,101476.16
2018-07-03T12:03:20.813Z,101472.03
2018-07-03T12:05:49.659Z,101464.57
2018-07-03T12:08:19.025Z,101460.42
2018-07-03T12:10:47.936Z,101464.11
2018-07-03T12:13:17.193Z,101460.81
2018-07-03T12:15:45.806Z,101465.32
2018-07-03T12:18:20.026Z,101461.01
2018-07-03T12:20:49.413Z,101455.70
2018-07-03T12:23:19.016Z,101455.37
2018-07-03T12:25:47.529Z,101455.52
2018-07-03T12:28:16.092Z,101451.33
2018-07-03T12:30:46.484Z,101448.56
2018-07-03T12:33:15.006Z,101451.84
2018-07-03T12:35:43.546Z,101445.71
2018-07-03T12:38:12.204Z,101446.77
2018-07-03T12:40:40.753Z,101441.72
2018-07-03T12:43:09.472Z,101440.86
2018-07-03T12:45:40.465Z,101448.27
2018-07-03T12:48:09.835Z,101446.09
2018-07-03T12:50:38.932Z,101448.96
2018-07-03T12:53:07.920Z,101438.13
2018-07-03T12:55:36.980Z,101432.49
2018-07-03T12:58:06.468Z,101431.55
2018-07-03T13:00:35.437Z,101430.17
2018-07-03T13:03:04.566Z,101428.35
2018-07-03T13:05:33.305Z,101425.42
2018-07-03T13:08:02.618Z,101422.17
2018-07-03T13:10:31.632Z,101424.06
2018-07-03T13:13:00.585Z,101426.41
2018-07-03T13:15:29.347Z,101418.84
2018-07-03T13:17:58.518Z,101425.03
2018-07-03T13:20:27.747Z,101419.31
2018-07-03T13:22:56.956Z,101415.44
2018-07-03T13:25:25.472Z,101415.34
2018-07-03T13:27:54.423Z,101414.82
2018-07-03T13:30:24.137Z,101408.95
2018-07-03T13:32:53.329Z,101412.92
2018-07-03T13:35:22.380Z,101409.64
2018-07-03T13:37:52.250Z,101405.41
2018-07-03T13:40:21.622Z,101407.81
2018-07-03T13:42:50.378Z,101407.20
2018-07-03T13:45:20.447Z,101408.45
2018-07-03T13:47:49.297Z,101404.17
2018-07-03T13:50:18.321Z,101395.23
2018-07-03T13:52:47.591Z,101399.57
2018-07-03T13:55:16.382Z,101399.03
2018-07-03T13:57:46.311Z,101404.26
2018-07-03T14:00:15.313Z,101396.25
2018-07-03T14:02:43.844Z,101395.52
2018-07-03T14:05:12.390Z,101398.49
2018-07-03T14:07:40.835Z,101400.40
2018-07-03T14:10:09.305Z,101390.67
2018-07-03T14:12:37.863Z,101395.78
2018-07-03T14:15:06.657Z,101379.50
2018-07-03T14:17:35.099Z,101385.58
2018-07-03T14:20:03.710Z,101390.86
2018-07-03T14:22:32.130Z,101374.28
2018-07-03T14:25:00.846Z,101379.97
2018-07-03T14:27:29.283Z,101377.78
2018-07-03T14:29:57.899Z,101370.08
2018-07-03T14:32:26.338Z,101363.06
2018-07-03T14:34:54.875Z,101366.63
2018-07-03T14:37:23.346Z,101371.80
2018-07-03T17:00:29.040Z,101292.71
2018-07-03T17:02:58.077Z,101294.94
2018-07-03T17:05:26.557Z,101296.08
2018-07-03T17:07:55.106Z,101288.48
2018-07-03T17:10:23.600Z,101290.91
2018-07-03T17:12:52.110Z,101290.35
2018-07-03T17:15:20.592Z,101289.02
2018-07-03T17:17:49.086Z,101293.03
2018-07-03T17:20:17.518Z,101288.95
2018-07-03T17:22:46.022Z,101281.59
2018-07-03T17:25:14.595Z,101283.35
2018-07-03T17:27:43.027Z,101279.92
2018-07-03T17:30:11.587Z,101278.18
2018-07-03T17:32:40.368Z,101279.88
2018-07-03T17:35:08.966Z,101274.48
2018-07-03T17:37:37.533Z,101271.54
2018-07-03T17:40:17.317Z,101272.81
2018-07-03T17:42:57.105Z,101272.49
2018-07-03T17:45:39.216Z,101267.45
2018-07-03T17:48:08.823Z,101275.76
2018-07-03T17:50:37.392Z,101271.20
2018-07-03T17:53:06.196Z,101273.63
2018-07-03T17:55:34.809Z,101273.08
2018-07-03T17:58:03.392Z,101275.19
2018-07-03T18:00:32.170Z,101275.38
2018-07-03T18:03:00.922Z,101279.52
2018-07-03T18:05:30.325Z,101278.42
2018-07-03T18:07:59.232Z,101277.71
2018-07-03T18:10:27.930Z,101274.28
2018-07-03T18:12:56.490Z,101278.14
2018-07-03T18:15:25.037Z,101272.39
2018-07-03T18:17:53.551Z,101272.62
2018-07-03T18:20:22.133Z,101275.34
2018-07-03T18:22:50.581Z,101270.39
2018-07-03T18:25:19.200Z,101274.34
2018-07-03T18:27:47.696Z,101280.68
2018-07-03T18:30:16.178Z,101280.19
2018-07-03T18:32:44.766Z,101287.05
2018-07-03T18:35:13.202Z,101285.73
2018-07-03T18:37:42.099Z,101289.75
2018-07-03T18:40:10.613Z,101290.97
2018-07-03T18:42:39.175Z,101288.28
2018-07-03T18:45:07.798Z,101286.81
2018-07-03T18:47:36.287Z,101287.32
2018-07-03T18:50:05.359Z,101292.55
2018-07-03T18:52:33.860Z,101295.30
2018-07-03T18:55:02.326Z,101289.97
2018-07-03T18:57:30.964Z,101291.35
2018-07-03T18:59:59.513Z,101289.34
2018-07-03T19:02:28.076Z,101287.97
2018-07-03T19:04:57.094Z,101289.28
2018-07-03T19:07:25.632Z,101294.48
2018-07-03T19:09:54.133Z,101292.48
2018-07-03T19:12:23.274Z,101292.27
2018-07-03T19:14:51.908Z,101296.73
2018-07-03T19:17:20.527Z,101295.39
2018-07-03T19:19:50.294Z,101298.39
2018-07-03T19:22:18.894Z,101302.83
2018-07-03T19:24:47.441Z,101308.72
2018-07-03T19:27:15.981Z,101311.98
2018-07-03T19:29:44.541Z,101311.19
2018-07-03T19:32:13.121Z,101310.80
2018-07-03T19:34:41.604Z,101311.70
2018-07-03T19:37:10.091Z,101312.18
2018-07-03T19:39:38.773Z,101317.12
2018-07-03T19:42:07.396Z,101312.99
2018-07-03T19:44:37.044Z,101316.47
2018-07-03T19:47:05.570Z,101315.89
2018-07-03T19:49:34.142Z,101327.37
2018-07-03T19:52:02.731Z,101329.05
2018-07-03T19:54:31.329Z,101328.91
2018-07-03T19:56:59.913Z,101326.56
2018-07-03T19:59:28.460Z,101325.95
2018-07-03T20:01:56.921Z,101329.84
2018-07-03T20:04:25.449Z,101327.42
2018-07-03T20:06:54.248Z,101331.75
2018-07-03T20:09:22.807Z,101336.94
2018-07-03T20:11:51.442Z,101340.73
2018-07-03T20:14:19.913Z,101344.12
2018-07-03T20:16:48.461Z,101337.58
2018-07-03T20:19:17.144Z,101343.56
2018-07-03T20:21:46.958Z,101344.17
2018-07-03T20:24:16.258Z,101347.92
2018-07-03T20:26:44.925Z,101339.50
2018-07-03T20:29:14.268Z,101336.44
2018-07-03T20:31:43.230Z,101339.56
2018-07-03T20:34:12.281Z,101338.41
2018-07-03T20:36:41.338Z,101343.11
2018-07-03T20:39:10.939Z,101342.31
2018-07-03T20:41:39.775Z,101341.52
2018-07-03T20:44:08.302Z,101342.51
2018-07-03T20:46:36.807Z,101351.92
2018-07-03T20:49:05.463Z,101354.25
2018-07-03T20:51:34.011Z,101351.20
2018-07-03T20:54:02.734Z,101351.73
2018-07-03T20:56:31.418Z,101347.36
2018-07-03T20:59:00.334Z,101351.44
2018-07-03T21:01:28.941Z,101349.72
2018-07-03T21:03:57.534Z,101360.03
2018-07-03T21:06:26.197Z,101362.33
2018-07-03T21:08:54.654Z,101361.92
2018-07-03T21:13:50.704Z,101358.93
2018-07-03T21:16:19.288Z,101358.53
2018-07-03T21:18:47.875Z,101359.90
2018-07-03T21:21:16.517Z,101367.52
2018-07-03T21:23:45.099Z,101369.27
2018-07-03T21:26:14.147Z,101368.16
2018-07-03T21:28:42.743Z,101365.78
2018-07-03T21:31:11.488Z,101364.78
2018-07-03T21:33:40.364Z,101370.00
2018-07-03T21:36:08.812Z,101371.70
2018-07-03T21:38:37.327Z,101371.23
2018-07-03T21:41:05.889Z,101372.09
2018-07-03T21:43:34.481Z,101371.19
2018-07-03T21:46:03.123Z,101368.53
2018-07-03T21:48:31.690Z,101366.72
2018-07-03T21:51:00.211Z,101373.84
2018-07-03T21:53:28.796Z,101372.94
2018-07-03T21:55:57.240Z,101370.71
2018-07-03T21:58:26.032Z,101373.84
2018-07-03T22:00:55.240Z,101377.02
2018-07-03T22:03:23.695Z,101374.81
2018-07-03T22:05:52.314Z,101378.83
2018-07-03T22:08:20.855Z,101372.59
2018-07-03T22:10:49.357Z,101378.87
2018-07-03T22:13:17.958Z,101378.87
2018-07-03T22:15:46.417Z,101382.43
2018-07-03T22:18:15.012Z,101382.86
2018-07-03T22:20:44.034Z,101383.31
2018-07-03T22:23:13.125Z,101385.09
2018-07-03T22:25:42.780Z,101381.94
2018-07-03T22:28:12.208Z,101382.37
2018-07-03T22:30:41.436Z,101379.22
2018-07-03T22:33:10.597Z,101376.07
2018-07-03T22:35:39.693Z,101382.30
2018-07-03T22:38:08.954Z,101381.86
2018-07-03T22:40:38.077Z,101388.08
2018-07-03T22:43:14.286Z,101386.29
2018-07-03T22:45:43.340Z,101388.97
2018-07-03T22:48:12.557Z,101392.09
2018-07-03T22:50:41.651Z,101386.31
2018-07-03T22:53:10.803Z,101387.65
2018-07-03T22:55:40.143Z,101389.46
2018-07-03T22:58:09.165Z,101386.80
2018-07-03T23:00:38.371Z,101383.69
2018-07-03T23:03:07.954Z,101384.58
2018-07-03T23:05:42.851Z,101384.58
2018-07-03T23:08:12.300Z,101390.41
2018-07-03T23:10:42.014Z,101391.31
2018-07-03T23:13:10.884Z,101385.97
2018-07-03T23:15:40.135Z,101394.03
2018-07-03T23:18:09.198Z,101384.22
2018-07-03T23:20:38.445Z,101389.61
2018-07-03T23:23:07.828Z,101386.97
2018-07-03T23:25:36.669Z,101381.67
2018-07-03T23:28:05.942Z,101387.50
2018-07-03T23:30:35.040Z,101388.86
2018-07-03T23:33:04.073Z,101386.66
2018-07-03T23:35:33.539Z,101392.02
2018-07-03T23:38:02.822Z,101397.43
2018-07-03T23:40:32.231Z,101391.19
2018-07-03T23:43:01.377Z,101397.43
2018-07-03T23:45:35.327Z,101397.50
2018-07-03T23:48:15.343Z,101397.53
2018-07-03T23:50:55.564Z,101398.02
2018-07-03T23:53:35.852Z,101399.86
2018-07-03T23:56:16.249Z,101400.33
2018-07-03T23:58:56.361Z,101397.68
